sensor_id;sensor_type;location;lat;lon;timestamp;pressure;altitude;pressure_sealevel;temperature;humidity
12624;BME280;6377;42.836;23.998;2023-05-03T00:02:18;96013.06;;;14.04;38.29
12624;BME280;6377;42.836;23.998;2023-05-03T00:04:51;96022.25;;;14.01;38.18
12624;BME280;6377;42.836;23.998;2023-05-03T00:07:18;96022.09;;;14.03;38.49
12624;BME280;6377;42.836;23.998;2023-05-03T00:09:47;96024.91;;;14.01;37.72
12624;BME280;6377;42.836;23.998;2023-05-03T00:12:14;96023.41;;;13.92;38.31
12624;BME280;6377;42.836;23.998;2023-05-03T00:14:41;96008.91;;;13.95;38.38
12624;BME280;6377;42.836;23.998;2023-05-03T00:17:09;95986.94;;;13.86;38.34
12624;BME280;6377;42.836;23.998;2023-05-03T00:19:36;95987.97;;;13.85;38.57
12624;BME280;6377;42.836;23.998;2023-05-03T00:22:06;95994.41;;;13.76;38.35
12624;BME280;6377;42.836;23.998;2023-05-03T00:24:33;95988.06;;;13.77;38.24
12624;BME280;6377;42.836;23.998;2023-05-03T00:27:02;95986.00;;;13.73;38.62
12624;BME280;6377;42.836;23.998;2023-05-03T00:29:30;95942.16;;;13.41;38.68
12624;BME280;6377;42.836;23.998;2023-05-03T00:31:57;95917.34;;;13.34;38.30
12624;BME280;6377;42.836;23.998;2023-05-03T00:34:24;95954.78;;;13.60;38.50
12624;BME280;6377;42.836;23.998;2023-05-03T00:36:52;95954.84;;;13.67;38.30
12624;BME280;6377;42.836;23.998;2023-05-03T00:39:20;95963.69;;;13.74;38.18
12624;BME280;6377;42.836;23.998;2023-05-03T00:41:47;95955.09;;;13.72;37.44
12624;BME280;6377;42.836;23.998;2023-05-03T00:44:15;95958.78;;;13.71;37.58
12624;BME280;6377;42.836;23.998;2023-05-03T00:46:42;95950.59;;;13.72;38.06
12624;BME280;6377;42.836;23.998;2023-05-03T00:49:09;95943.47;;;13.73;37.69
12624;BME280;6377;42.836;23.998;2023-05-03T00:51:36;95948.41;;;13.76;36.69
12624;BME280;6377;42.836;23.998;2023-05-03T00:54:04;95955.78;;;13.80;37.06
12624;BME280;6377;42.836;23.998;2023-05-03T00:56:33;95965.59;;;13.80;37.09
12624;BME280;6377;42.836;23.998;2023-05-03T00:59:00;95958.28;;;13.82;37.15
12624;BME280;6377;42.836;23.998;2023-05-03T01:01:28;95974.59;;;13.79;37.49
12624;BME280;6377;42.836;23.998;2023-05-03T01:03:56;95973.41;;;13.81;37.31
12624;BME280;6377;42.836;23.998;2023-05-03T01:06:31;95982.59;;;13.79;37.51
12624;BME280;6377;42.836;23.998;2023-05-03T01:09:03;95988.06;;;13.77;37.57
12624;BME280;6377;42.836;23.998;2023-05-03T01:11:47;95995.81;;;13.72;38.10
12624;BME280;6377;42.836;23.998;2023-05-03T01:14:26;95990.09;;;13.75;37.73
12624;BME280;6377;42.836;23.998;2023-05-03T01:16:59;95997.25;;;13.75;37.89
12624;BME280;6377;42.836;23.998;2023-05-03T01:19:28;95993.59;;;13.76;37.89
12624;BME280;6377;42.836;23.998;2023-05-03T01:22:05;95983.97;;;13.75;37.57
12624;BME280;6377;42.836;23.998;2023-05-03T01:24:37;95971.13;;;13.78;37.91
12624;BME280;6377;42.836;23.998;2023-05-03T01:27:08;95968.91;;;13.82;37.82
12624;BME280;6377;42.836;23.998;2023-05-03T01:29:36;95961.94;;;13.81;37.47
12624;BME280;6377;42.836;23.998;2023-05-03T01:32:07;95966.50;;;13.87;37.79
12624;BME280;6377;42.836;23.998;2023-05-03T01:34:43;95969.72;;;13.82;38.22
12624;BME280;6377;42.836;23.998;2023-05-03T01:37:15;95950.16;;;13.90;38.57
12624;BME280;6377;42.836;23.998;2023-05-03T01:39:49;95950.91;;;13.84;38.91
12624;BME280;6377;42.836;23.998;2023-05-03T01:42:19;95949.94;;;13.91;38.71
12624;BME280;6377;42.836;23.998;2023-05-03T01:44:48;95944.84;;;13.90;38.70
12624;BME280;6377;42.836;23.998;2023-05-03T01:47:16;95941.03;;;13.78;39.48
12624;BME280;6377;42.836;23.998;2023-05-03T01:49:43;95939.75;;;13.67;39.53
12624;BME280;6377;42.836;23.998;2023-05-03T01:52:10;95923.91;;;13.59;39.49
12624;BME280;6377;42.836;23.998;2023-05-03T01:54:37;95933.34;;;13.62;39.78
12624;BME280;6377;42.836;23.998;2023-05-03T01:57:04;95920.44;;;13.59;39.83
12624;BME280;6377;42.836;23.998;2023-05-03T01:59:33;95907.25;;;13.51;39.67
12624;BME280;6377;42.836;23.998;2023-05-03T02:02:01;95905.06;;;13.54;39.84
12624;BME280;6377;42.836;23.998;2023-05-03T02:04:28;95914.69;;;13.55;40.04
12624;BME280;6377;42.836;23.998;2023-05-03T02:06:55;95910.22;;;13.62;39.85
12624;BME280;6377;42.836;23.998;2023-05-03T02:09:23;95901.06;;;13.65;40.46
12624;BME280;6377;42.836;23.998;2023-05-03T02:11:50;95892.22;;;13.58;40.33
12624;BME280;6377;42.836;23.998;2023-05-03T02:14:17;95884.44;;;13.56;40.87
12624;BME280;6377;42.836;23.998;2023-05-03T02:16:46;95881.78;;;13.56;40.91
12624;BME280;6377;42.836;23.998;2023-05-03T02:19:13;95885.25;;;13.57;40.75
12624;BME280;6377;42.836;23.998;2023-05-03T02:21:40;95876.41;;;13.50;41.21
12624;BME280;6377;42.836;23.998;2023-05-03T02:24:07;95871.47;;;13.46;40.93
12624;BME280;6377;42.836;23.998;2023-05-03T02:26:34;95890.44;;;13.43;41.54
12624;BME280;6377;42.836;23.998;2023-05-03T02:29:02;95886.34;;;13.41;41.31
12624;BME280;6377;42.836;23.998;2023-05-03T02:31:29;95878.09;;;13.36;42.30
12624;BME280;6377;42.836;23.998;2023-05-03T02:33:57;95880.50;;;13.31;41.49
12624;BME280;6377;42.836;23.998;2023-05-03T02:36:24;95887.28;;;13.33;41.47
12624;BME280;6377;42.836;23.998;2023-05-03T02:38:52;95881.84;;;13.41;41.45
12624;BME280;6377;42.836;23.998;2023-05-03T02:41:19;95898.50;;;13.50;41.54
12624;BME280;6377;42.836;23.998;2023-05-03T02:43:46;95894.41;;;13.54;42.00
12624;BME280;6377;42.836;23.998;2023-05-03T02:46:14;95889.94;;;13.55;41.63
12624;BME280;6377;42.836;23.998;2023-05-03T02:48:41;95896.47;;;13.52;40.70
12624;BME280;6377;42.836;23.998;2023-05-03T02:51:09;95851.50;;;13.29;41.06
12624;BME280;6377;42.836;23.998;2023-05-03T02:53:36;95899.28;;;13.51;40.97
12624;BME280;6377;42.836;23.998;2023-05-03T02:56:04;95896.94;;;13.62;41.22
12624;BME280;6377;42.836;23.998;2023-05-03T02:58:32;95891.91;;;13.67;41.40
12624;BME280;6377;42.836;23.998;2023-05-03T03:00:59;95898.84;;;13.68;40.45
12624;BME280;6377;42.836;23.998;2023-05-03T03:03:26;95899.03;;;13.67;41.02
12624;BME280;6377;42.836;23.998;2023-05-03T03:05:53;95887.19;;;13.69;41.68
12624;BME280;6377;42.836;23.998;2023-05-03T03:08:22;95897.44;;;13.72;41.17
12624;BME280;6377;42.836;23.998;2023-05-03T03:10:49;95902.97;;;13.71;41.53
12624;BME280;6377;42.836;23.998;2023-05-03T03:13:16;95907.06;;;13.73;41.16
12624;BME280;6377;42.836;23.998;2023-05-03T03:15:43;95902.19;;;13.77;41.90
12624;BME280;6377;42.836;23.998;2023-05-03T03:18:10;95916.50;;;13.76;42.38
12624;BME280;6377;42.836;23.998;2023-05-03T03:20:38;95888.41;;;13.67;43.05
12624;BME280;6377;42.836;23.998;2023-05-03T03:23:05;95909.53;;;13.75;42.72
12624;BME280;6377;42.836;23.998;2023-05-03T03:25:34;95906.25;;;13.73;47.11
12624;BME280;6377;42.836;23.998;2023-05-03T03:28:01;95903.81;;;13.78;49.07
12624;BME280;6377;42.836;23.998;2023-05-03T03:30:28;95903.56;;;13.94;44.13
12624;BME280;6377;42.836;23.998;2023-05-03T03:32:55;95893.53;;;13.96;45.41
12624;BME280;6377;42.836;23.998;2023-05-03T03:35:22;95900.97;;;14.07;46.00
12624;BME280;6377;42.836;23.998;2023-05-03T03:37:50;95898.94;;;14.09;49.64
12624;BME280;6377;42.836;23.998;2023-05-03T03:40:17;95904.75;;;14.19;44.01
12624;BME280;6377;42.836;23.998;2023-05-03T03:42:45;95900.16;;;13.79;43.84
12624;BME280;6377;42.836;23.998;2023-05-03T03:45:12;95921.91;;;13.89;50.34
12624;BME280;6377;42.836;23.998;2023-05-03T03:47:39;95928.06;;;13.89;48.50
12624;BME280;6377;42.836;23.998;2023-05-03T03:50:07;95930.38;;;13.99;46.29
12624;BME280;6377;42.836;23.998;2023-05-03T03:52:34;95938.16;;;14.00;48.32
12624;BME280;6377;42.836;23.998;2023-05-03T03:55:02;95932.91;;;14.07;48.60
12624;BME280;6377;42.836;23.998;2023-05-03T03:57:29;95927.69;;;13.71;46.05
12624;BME280;6377;42.836;23.998;2023-05-03T03:59:57;95935.88;;;13.70;44.80
12624;BME280;6377;42.836;23.998;2023-05-03T04:02:26;95941.03;;;13.78;44.33
12624;BME280;6377;42.836;23.998;2023-05-03T04:04:53;95923.06;;;13.80;42.83
12624;BME280;6377;42.836;23.998;2023-05-03T04:07:20;95933.31;;;13.83;43.15
12624;BME280;6377;42.836;23.998;2023-05-03T04:09:47;95933.13;;;13.84;42.50
12624;BME280;6377;42.836;23.998;2023-05-03T04:12:15;95927.38;;;13.81;42.35
12624;BME280;6377;42.836;23.998;2023-05-03T04:14:42;95944.00;;;13.89;43.59
12624;BME280;6377;42.836;23.998;2023-05-03T04:17:10;95954.03;;;13.87;42.34
12624;BME280;6377;42.836;23.998;2023-05-03T04:19:37;95951.81;;;13.91;42.48
12624;BME280;6377;42.836;23.998;2023-05-03T04:22:05;95954.72;;;13.96;42.24
12624;BME280;6377;42.836;23.998;2023-05-03T04:24:32;95952.03;;;13.96;41.88
12624;BME280;6377;42.836;23.998;2023-05-03T04:27:04;95954.09;;;13.94;41.85
12624;BME280;6377;42.836;23.998;2023-05-03T04:29:31;95950.53;;;13.87;41.94
12624;BME280;6377;42.836;23.998;2023-05-03T04:31:58;95966.03;;;13.83;42.25
12624;BME280;6377;42.836;23.998;2023-05-03T04:34:28;95964.28;;;13.90;42.09
12624;BME280;6377;42.836;23.998;2023-05-03T04:36:56;95967.56;;;13.92;41.71
12624;BME280;6377;42.836;23.998;2023-05-03T04:39:25;95963.66;;;13.88;41.41
12624;BME280;6377;42.836;23.998;2023-05-03T04:41:52;95969.34;;;13.85;41.59
12624;BME280;6377;42.836;23.998;2023-05-03T04:44:19;95965.59;;;13.80;42.27
12624;BME280;6377;42.836;23.998;2023-05-03T04:46:46;95982.59;;;13.79;41.76
12624;BME280;6377;42.836;23.998;2023-05-03T04:49:14;95979.53;;;13.82;42.05
12624;BME280;6377;42.836;23.998;2023-05-03T04:51:43;95975.47;;;13.86;41.80
12624;BME280;6377;42.836;23.998;2023-05-03T04:54:10;95956.38;;;13.76;41.16
12624;BME280;6377;42.836;23.998;2023-05-03T04:56:38;95990.09;;;13.96;41.62
12624;BME280;6377;42.836;23.998;2023-05-03T04:59:05;95992.94;;;13.95;41.05
12624;BME280;6377;42.836;23.998;2023-05-03T05:01:33;95988.66;;;13.94;41.74
12624;BME280;6377;42.836;23.998;2023-05-03T05:04:00;95982.31;;;13.74;42.55
12624;BME280;6377;42.836;23.998;2023-05-03T05:06:27;96005.78;;;13.91;44.09
12624;BME280;6377;42.836;23.998;2023-05-03T05:08:56;96018.84;;;13.86;42.24
12624;BME280;6377;42.836;23.998;2023-05-03T05:11:23;96028.16;;;13.97;41.23
12624;BME280;6377;42.836;23.998;2023-05-03T05:13:50;96003.97;;;13.71;42.30
12624;BME280;6377;42.836;23.998;2023-05-03T05:16:17;96040.19;;;13.93;42.57
12624;BME280;6377;42.836;23.998;2023-05-03T05:18:44;96056.25;;;13.85;44.04
12624;BME280;6377;42.836;23.998;2023-05-03T05:21:12;96066.78;;;13.93;44.54
12624;BME280;6377;42.836;23.998;2023-05-03T05:23:39;96064.25;;;13.85;45.24
12624;BME280;6377;42.836;23.998;2023-05-03T05:26:08;96056.25;;;13.64;47.57
12624;BME280;6377;42.836;23.998;2023-05-03T05:28:35;96057.94;;;13.50;49.60
12624;BME280;6377;42.836;23.998;2023-05-03T05:31:02;96082.69;;;13.21;52.30
12624;BME280;6377;42.836;23.998;2023-05-03T05:33:29;96006.97;;;12.96;54.09
12624;BME280;6377;42.836;23.998;2023-05-03T05:35:57;96041.97;;;13.14;57.15
12624;BME280;6377;42.836;23.998;2023-05-03T05:38:24;96053.44;;;13.07;58.13
12624;BME280;6377;42.836;23.998;2023-05-03T05:40:51;96053.44;;;13.07;58.84
12624;BME280;6377;42.836;23.998;2023-05-03T05:43:20;96060.78;;;12.90;62.92
12624;BME280;6377;42.836;23.998;2023-05-03T05:45:47;96061.25;;;12.93;64.15
12624;BME280;6377;42.836;23.998;2023-05-03T05:48:14;96049.34;;;12.89;64.07
12624;BME280;6377;42.836;23.998;2023-05-03T05:50:41;96062.09;;;12.94;64.41
12624;BME280;6377;42.836;23.998;2023-05-03T05:53:09;96047.22;;;12.56;71.03
12624;BME280;6377;42.836;23.998;2023-05-03T05:55:36;96050.13;;;12.46;72.54
12624;BME280;6377;42.836;23.998;2023-05-03T05:58:03;96062.50;;;12.54;72.63
12624;BME280;6377;42.836;23.998;2023-05-03T06:00:32;96045.81;;;12.45;72.03
12624;BME280;6377;42.836;23.998;2023-05-03T06:02:59;96048.78;;;12.50;73.05
12624;BME280;6377;42.836;23.998;2023-05-03T06:05:26;96048.22;;;12.55;71.70
12624;BME280;6377;42.836;23.998;2023-05-03T06:07:54;96063.63;;;12.59;69.55
12624;BME280;6377;42.836;23.998;2023-05-03T06:10:21;96059.41;;;12.65;69.82
12624;BME280;6377;42.836;23.998;2023-05-03T06:12:48;96054.63;;;12.60;69.46
12624;BME280;6377;42.836;23.998;2023-05-03T06:15:15;96047.16;;;12.64;69.27
12624;BME280;6377;42.836;23.998;2023-05-03T06:17:44;96051.25;;;12.52;71.20
12624;BME280;6377;42.836;23.998;2023-05-03T06:20:12;96010.06;;;12.26;73.25
12624;BME280;6377;42.836;23.998;2023-05-03T06:22:39;96033.50;;;12.52;74.05
12624;BME280;6377;42.836;23.998;2023-05-03T06:25:07;96052.00;;;12.75;78.07
12624;BME280;6377;42.836;23.998;2023-05-03T06:27:35;96054.63;;;12.60;75.44
12624;BME280;6377;42.836;23.998;2023-05-03T06:30:03;96053.53;;;12.55;75.61
12624;BME280;6377;42.836;23.998;2023-05-03T06:32:31;95993.78;;;12.29;77.65
12624;BME280;6377;42.836;23.998;2023-05-03T06:34:59;95981.88;;;12.25;80.18
12624;BME280;6377;42.836;23.998;2023-05-03T06:37:26;96040.19;;;12.77;82.97
12624;BME280;6377;42.836;23.998;2023-05-03T06:39:54;96032.22;;;12.77;82.73
12624;BME280;6377;42.836;23.998;2023-05-03T06:42:21;95999.47;;;12.70;84.17
12624;BME280;6377;42.836;23.998;2023-05-03T06:44:49;96000.09;;;12.72;81.37
12624;BME280;6377;42.836;23.998;2023-05-03T06:47:16;96020.72;;;12.70;89.30
12624;BME280;6377;42.836;23.998;2023-05-03T06:49:44;96029.03;;;12.67;91.86
12624;BME280;6377;42.836;23.998;2023-05-03T06:52:13;96023.06;;;12.65;92.27
12624;BME280;6377;42.836;23.998;2023-05-03T06:54:40;96020.97;;;12.75;89.22
12624;BME280;6377;42.836;23.998;2023-05-03T06:57:08;96009.78;;;12.65;88.84
12624;BME280;6377;42.836;23.998;2023-05-03T06:59:35;96011.09;;;12.84;87.72
12624;BME280;6377;42.836;23.998;2023-05-03T07:02:03;96011.09;;;12.84;93.45
12624;BME280;6377;42.836;23.998;2023-05-03T07:04:30;96005.06;;;12.75;93.82
12624;BME280;6377;42.836;23.998;2023-05-03T07:06:57;96005.66;;;12.92;91.30
12624;BME280;6377;42.836;23.998;2023-05-03T07:09:27;95999.25;;;13.01;90.92
12624;BME280;6377;42.836;23.998;2023-05-03T07:11:54;95993.19;;;13.07;89.10
12624;BME280;6377;42.836;23.998;2023-05-03T07:14:21;95985.06;;;13.23;85.98
12624;BME280;6377;42.836;23.998;2023-05-03T07:16:49;95986.03;;;13.37;84.42
12624;BME280;6377;42.836;23.998;2023-05-03T07:19:16;95980.66;;;13.52;83.69
12624;BME280;6377;42.836;23.998;2023-05-03T07:21:43;95965.03;;;13.63;82.90
12624;BME280;6377;42.836;23.998;2023-05-03T07:24:10;95963.06;;;13.72;84.31
12624;BME280;6377;42.836;23.998;2023-05-03T07:26:39;95972.25;;;13.69;89.04
12624;BME280;6377;42.836;23.998;2023-05-03T07:29:07;95968.38;;;13.72;85.16
12624;BME280;6377;42.836;23.998;2023-05-03T07:31:34;95977.50;;;13.84;83.41
12624;BME280;6377;42.836;23.998;2023-05-03T07:34:02;95986.31;;;13.84;82.30
12624;BME280;6377;42.836;23.998;2023-05-03T07:36:29;95987.81;;;13.93;84.78
12624;BME280;6377;42.836;23.998;2023-05-03T07:38:56;95977.63;;;13.97;79.80
12624;BME280;6377;42.836;23.998;2023-05-03T07:41:23;95995.91;;;14.07;80.80
12624;BME280;6377;42.836;23.998;2023-05-03T07:43:52;95994.97;;;14.14;80.79
12624;BME280;6377;42.836;23.998;2023-05-03T07:46:20;95992.53;;;14.19;76.17
12624;BME280;6377;42.836;23.998;2023-05-03T07:48:47;95945.13;;;14.01;74.87
12624;BME280;6377;42.836;23.998;2023-05-03T07:51:15;95994.13;;;14.35;79.96
12624;BME280;6377;42.836;23.998;2023-05-03T07:53:42;95991.19;;;14.30;79.21
12624;BME280;6377;42.836;23.998;2023-05-03T07:56:09;95989.81;;;14.34;79.20
12624;BME280;6377;42.836;23.998;2023-05-03T07:58:37;95993.22;;;14.28;81.42
12624;BME280;6377;42.836;23.998;2023-05-03T08:01:06;95998.16;;;14.03;78.58
12624;BME280;6377;42.836;23.998;2023-05-03T08:03:33;95997.56;;;14.08;77.04
12624;BME280;6377;42.836;23.998;2023-05-03T08:06:00;96002.13;;;14.14;77.63
12624;BME280;6377;42.836;23.998;2023-05-03T08:08:27;95999.44;;;14.14;76.40
12624;BME280;6377;42.836;23.998;2023-05-03T08:10:56;95998.63;;;14.13;75.65
12624;BME280;6377;42.836;23.998;2023-05-03T08:13:23;96001.09;;;14.15;73.53
12624;BME280;6377;42.836;23.998;2023-05-03T08:15:51;96009.88;;;14.15;72.14
12624;BME280;6377;42.836;23.998;2023-05-03T08:18:19;95981.22;;;14.11;71.57
12624;BME280;6377;42.836;23.998;2023-05-03T08:20:47;96002.19;;;14.20;68.34
12624;BME280;6377;42.836;23.998;2023-05-03T08:23:14;95989.69;;;14.21;66.26
12624;BME280;6377;42.836;23.998;2023-05-03T08:25:41;95985.44;;;14.26;67.01
12624;BME280;6377;42.836;23.998;2023-05-03T08:28:09;95994.19;;;14.20;67.36
12624;BME280;6377;42.836;23.998;2023-05-03T08:30:36;95991.03;;;14.10;68.07
12624;BME280;6377;42.836;23.998;2023-05-03T08:33:03;95994.19;;;14.20;70.05
12624;BME280;6377;42.836;23.998;2023-05-03T08:35:32;95990.94;;;14.46;69.14
12624;BME280;6377;42.836;23.998;2023-05-03T08:37:59;95981.56;;;14.56;69.34
12624;BME280;6377;42.836;23.998;2023-05-03T08:40:27;95984.31;;;14.70;70.15
12624;BME280;6377;42.836;23.998;2023-05-03T08:42:58;95954.59;;;14.66;71.02
12624;BME280;6377;42.836;23.998;2023-05-03T08:45:34;95953.75;;;15.00;70.97
12624;BME280;6377;42.836;23.998;2023-05-03T08:48:01;95965.13;;;15.28;72.43
12624;BME280;6377;42.836;23.998;2023-05-03T08:50:29;95975.50;;;15.64;72.14
12624;BME280;6377;42.836;23.998;2023-05-03T08:52:59;95966.31;;;16.06;69.17
12624;BME280;6377;42.836;23.998;2023-05-03T08:55:28;95967.94;;;16.33;65.12
12624;BME280;6377;42.836;23.998;2023-05-03T08:57:55;95919.94;;;16.00;65.59
12624;BME280;6377;42.836;23.998;2023-05-03T09:00:27;95931.22;;;16.15;63.79
12624;BME280;6377;42.836;23.998;2023-05-03T09:02:55;95909.44;;;16.32;64.01
12624;BME280;6377;42.836;23.998;2023-05-03T09:05:32;95967.72;;;16.67;64.67
12624;BME280;6377;42.836;23.998;2023-05-03T09:08:02;95960.56;;;16.61;62.62
12624;BME280;6377;42.836;23.998;2023-05-03T09:10:30;95942.00;;;16.79;62.75
12624;BME280;6377;42.836;23.998;2023-05-03T09:12:59;95960.00;;;17.17;63.09
12624;BME280;6377;42.836;23.998;2023-05-03T09:15:26;95964.28;;;17.18;60.56
12624;BME280;6377;42.836;23.998;2023-05-03T09:18:12;95956.41;;;17.29;62.45
12624;BME280;6377;42.836;23.998;2023-05-03T09:20:41;95948.06;;;17.13;61.46
12624;BME280;6377;42.836;23.998;2023-05-03T09:23:17;95964.78;;;17.46;62.67
12624;BME280;6377;42.836;23.998;2023-05-03T09:25:47;95947.34;;;17.75;63.19
12624;BME280;6377;42.836;23.998;2023-05-03T09:28:15;95947.94;;;18.08;60.64
12624;BME280;6377;42.836;23.998;2023-05-03T09:30:43;95941.00;;;18.25;58.68
12624;BME280;6377;42.836;23.998;2023-05-03T09:33:11;95910.88;;;18.30;57.96
12624;BME280;6377;42.836;23.998;2023-05-03T09:35:55;95918.38;;;18.64;58.07
12624;BME280;6377;42.836;23.998;2023-05-03T09:38:27;95906.88;;;18.64;56.15
12624;BME280;6377;42.836;23.998;2023-05-03T09:40:54;95905.69;;;18.78;55.41
12624;BME280;6377;42.836;23.998;2023-05-03T09:43:22;95924.66;;;18.76;57.47
12624;BME280;6377;42.836;23.998;2023-05-03T09:45:49;95928.31;;;18.82;57.97
12624;BME280;6377;42.836;23.998;2023-05-03T09:48:16;95935.16;;;18.96;55.76
12624;BME280;6377;42.836;23.998;2023-05-03T09:50:47;95927.53;;;19.29;51.72
12624;BME280;6377;42.836;23.998;2023-05-03T09:53:15;95915.81;;;19.60;48.66
12624;BME280;6377;42.836;23.998;2023-05-03T09:55:45;95927.63;;;19.82;54.27
12624;BME280;6377;42.836;23.998;2023-05-03T09:58:17;95923.22;;;19.58;54.61
12624;BME280;6377;42.836;23.998;2023-05-03T10:00:45;95920.06;;;19.49;55.50
12624;BME280;6377;42.836;23.998;2023-05-03T10:03:23;95922.16;;;19.29;57.52
12624;BME280;6377;42.836;23.998;2023-05-03T10:05:52;95923.69;;;19.55;56.95
12624;BME280;6377;42.836;23.998;2023-05-03T10:08:26;95931.78;;;19.37;56.45
12624;BME280;6377;42.836;23.998;2023-05-03T10:10:55;95912.59;;;19.03;57.96
12624;BME280;6377;42.836;23.998;2023-05-03T10:13:23;95921.94;;;19.49;56.71
12624;BME280;6377;42.836;23.998;2023-05-03T10:15:53;95923.47;;;19.98;52.32
12624;BME280;6377;42.836;23.998;2023-05-03T10:18:25;95919.31;;;20.13;53.19
12624;BME280;6377;42.836;23.998;2023-05-03T10:20:59;95905.38;;;19.93;53.66
12624;BME280;6377;42.836;23.998;2023-05-03T10:23:28;95915.72;;;19.67;53.42
12624;BME280;6377;42.836;23.998;2023-05-03T10:26:15;95932.63;;;19.01;57.36
12624;BME280;6377;42.836;23.998;2023-05-03T10:28:42;95915.19;;;19.10;56.22
12624;BME280;6377;42.836;23.998;2023-05-03T10:31:43;95909.94;;;19.33;56.23
12624;BME280;6377;42.836;23.998;2023-05-03T10:34:22;95913.75;;;19.26;56.83
12624;BME280;6377;42.836;23.998;2023-05-03T10:36:50;95918.75;;;19.22;57.21
12624;BME280;6377;42.836;23.998;2023-05-03T10:39:19;95917.00;;;18.98;55.94
12624;BME280;6377;42.836;23.998;2023-05-03T10:41:58;95895.03;;;19.08;56.59
12624;BME280;6377;42.836;23.998;2023-05-03T10:44:26;95917.94;;;19.40;56.35
12624;BME280;6377;42.836;23.998;2023-05-03T10:46:54;95923.44;;;19.27;54.49
12624;BME280;6377;42.836;23.998;2023-05-03T10:49:22;95921.72;;;19.32;53.12
12624;BME280;6377;42.836;23.998;2023-05-03T10:51:52;95928.47;;;19.53;52.33
12624;BME280;6377;42.836;23.998;2023-05-03T10:54:19;95928.09;;;19.49;50.59
12624;BME280;6377;42.836;23.998;2023-05-03T10:56:51;95927.09;;;19.14;57.34
12624;BME280;6377;42.836;23.998;2023-05-03T10:59:21;95931.88;;;18.94;59.28
12624;BME280;6377;42.836;23.998;2023-05-03T11:01:49;95931.81;;;19.00;59.12
12624;BME280;6377;42.836;23.998;2023-05-03T11:04:34;95935.31;;;19.01;58.39
12624;BME280;6377;42.836;23.998;2023-05-03T11:07:03;95919.53;;;18.75;61.76
12624;BME280;6377;42.836;23.998;2023-05-03T11:09:31;95923.75;;;18.82;60.11
12624;BME280;6377;42.836;23.998;2023-05-03T11:12:02;95920.28;;;18.64;56.85
12624;BME280;6377;42.836;23.998;2023-05-03T11:14:31;95914.47;;;18.67;58.00
12624;BME280;6377;42.836;23.998;2023-05-03T11:16:58;95921.69;;;18.84;57.89
12624;BME280;6377;42.836;23.998;2023-05-03T11:19:27;95920.94;;;18.77;55.82
12624;BME280;6377;42.836;23.998;2023-05-03T11:21:54;95914.38;;;18.73;56.73
12624;BME280;6377;42.836;23.998;2023-05-03T11:24:21;95917.13;;;19.03;58.25
12624;BME280;6377;42.836;23.998;2023-05-03T11:26:48;95924.97;;;19.05;59.70
12624;BME280;6377;42.836;23.998;2023-05-03T11:29:16;95904.63;;;18.79;60.21
12624;BME280;6377;42.836;23.998;2023-05-03T11:31:44;95914.19;;;18.93;61.38
12624;BME280;6377;42.836;23.998;2023-05-03T11:34:12;95911.78;;;18.85;58.63
12624;BME280;6377;42.836;23.998;2023-05-03T11:36:40;95915.41;;;18.90;58.44
12624;BME280;6377;42.836;23.998;2023-05-03T11:39:07;95891.28;;;18.90;57.98
12624;BME280;6377;42.836;23.998;2023-05-03T11:41:35;95902.69;;;19.04;54.75
12624;BME280;6377;42.836;23.998;2023-05-03T11:44:03;95902.44;;;19.06;54.61
12624;BME280;6377;42.836;23.998;2023-05-03T11:46:32;95908.25;;;19.21;54.65
12624;BME280;6377;42.836;23.998;2023-05-03T11:49:02;95895.38;;;19.11;58.64
12624;BME280;6377;42.836;23.998;2023-05-03T11:51:30;95905.44;;;18.97;60.85
12624;BME280;6377;42.836;23.998;2023-05-03T11:53:59;95890.44;;;18.78;62.92
12624;BME280;6377;42.836;23.998;2023-05-03T11:56:27;95902.03;;;18.72;63.33
12624;BME280;6377;42.836;23.998;2023-05-03T11:58:55;95882.69;;;18.52;61.85
12624;BME280;6377;42.836;23.998;2023-05-03T12:01:25;95905.69;;;18.60;62.58
12624;BME280;6377;42.836;23.998;2023-05-03T12:03:53;95914.25;;;18.68;63.97
12624;BME280;6377;42.836;23.998;2023-05-03T12:06:22;95915.59;;;18.77;60.44
12624;BME280;6377;42.836;23.998;2023-05-03T12:08:52;95913.03;;;18.82;58.94
12624;BME280;6377;42.836;23.998;2023-05-03T12:11:19;95869.00;;;18.60;57.35
12624;BME280;6377;42.836;23.998;2023-05-03T12:13:55;95894.91;;;18.84;56.73
12624;BME280;6377;42.836;23.998;2023-05-03T12:16:24;95893.53;;;18.93;55.05
12624;BME280;6377;42.836;23.998;2023-05-03T12:18:53;95888.53;;;18.79;55.25
12624;BME280;6377;42.836;23.998;2023-05-03T12:21:23;95891.03;;;18.80;55.41
12624;BME280;6377;42.836;23.998;2023-05-03T12:23:52;95894.66;;;18.86;55.64
12624;BME280;6377;42.836;23.998;2023-05-03T12:26:19;95899.50;;;18.95;55.75
12624;BME280;6377;42.836;23.998;2023-05-03T12:28:47;95900.41;;;18.89;56.56
12624;BME280;6377;42.836;23.998;2023-05-03T12:31:15;95898.69;;;18.95;56.67
12624;BME280;6377;42.836;23.998;2023-05-03T12:33:43;95898.00;;;18.99;55.90
12624;BME280;6377;42.836;23.998;2023-05-03T12:36:10;95897.03;;;18.76;56.24
12624;BME280;6377;42.836;23.998;2023-05-03T12:38:39;95894.66;;;18.68;55.20
12624;BME280;6377;42.836;23.998;2023-05-03T12:41:06;95897.56;;;18.66;55.76
12624;BME280;6377;42.836;23.998;2023-05-03T12:43:33;95872.25;;;18.62;55.63
12624;BME280;6377;42.836;23.998;2023-05-03T12:46:00;95873.53;;;18.78;55.08
12624;BME280;6377;42.836;23.998;2023-05-03T12:48:28;95717.44;;;17.80;55.04
12624;BME280;6377;42.836;23.998;2023-05-03T12:50:55;95865.88;;;18.81;55.57
12624;BME280;6377;42.836;23.998;2023-05-03T12:53:23;95863.78;;;18.83;55.85
12624;BME280;6377;42.836;23.998;2023-05-03T12:55:52;95861.47;;;18.87;58.24
12624;BME280;6377;42.836;23.998;2023-05-03T12:58:20;95869.44;;;18.75;56.45
12624;BME280;6377;42.836;23.998;2023-05-03T13:00:47;95852.09;;;18.60;56.17
12624;BME280;6377;42.836;23.998;2023-05-03T13:03:15;95864.53;;;18.72;56.39
12624;BME280;6377;42.836;23.998;2023-05-03T13:05:43;95863.72;;;18.72;57.48
12624;BME280;6377;42.836;23.998;2023-05-03T13:08:11;95869.66;;;18.74;56.60